createdAt,value
2023-03-29T00:01:02.616Z,57.74
2023-03-29T00:03:09.477Z,58.12
2023-03-29T00:05:13.393Z,58.07
2023-03-29T00:07:20.683Z,58.47
2023-03-29T00:09:26.675Z,58.39
2023-03-29T00:11:31.360Z,57.91
2023-03-29T00:13:35.117Z,56.89
2023-03-29T00:15:42.877Z,56.71
2023-03-29T00:17:47.598Z,56.65
2023-03-29T00:19:53.051Z,56.84
2023-03-29T00:21:56.196Z,56.93
2023-03-29T00:24:01.456Z,57.29
2023-03-29T00:26:07.168Z,57.55
2023-03-29T00:28:10.512Z,57.10
2023-03-29T00:30:15.037Z,57.10
2023-03-29T00:32:20.851Z,57.26
2023-03-29T00:34:25.894Z,57.17
2023-03-29T00:36:33.403Z,57.28
2023-03-29T00:38:38.842Z,57.50
2023-03-29T00:40:47.125Z,57.37
2023-03-29T00:42:50.244Z,57.35
2023-03-29T00:45:07.836Z,57.57
2023-03-29T00:47:11.979Z,57.57
2023-03-29T00:49:15.614Z,57.77
2023-03-29T00:51:24.910Z,57.69
2023-03-29T00:53:36.834Z,57.71
2023-03-29T00:55:54.473Z,57.47
2023-03-29T00:58:01.016Z,57.52
2023-03-29T01:00:10.523Z,57.56
2023-03-29T01:02:16.630Z,57.63
2023-03-29T01:04:34.001Z,57.50
2023-03-29T01:06:44.376Z,57.51
2023-03-29T01:08:53.337Z,57.72
2023-03-29T01:11:15.999Z,57.67
2023-03-29T01:13:27.488Z,57.64
2023-03-29T01:15:32.125Z,57.71
2023-03-29T01:17:35.813Z,57.83
2023-03-29T01:19:48.620Z,57.88
2023-03-29T01:22:07.461Z,57.79
2023-03-29T01:24:13.373Z,58.04
2023-03-29T01:26:31.733Z,57.96
2023-03-29T01:28:48.373Z,57.71
2023-03-29T01:30:57.398Z,57.73
2023-03-29T01:33:24.033Z,57.79
2023-03-29T01:35:49.558Z,57.66
2023-03-29T01:38:14.444Z,57.77
2023-03-29T01:40:24.458Z,57.74
2023-03-29T01:42:42.374Z,57.71
2023-03-29T01:45:32.005Z,57.75
2023-03-29T01:47:54.738Z,57.61
2023-03-29T01:50:17.993Z,57.82
2023-03-29T01:52:32.176Z,57.79
2023-03-29T01:54:54.949Z,57.85
2023-03-29T01:56:59.328Z,57.88
2023-03-29T01:59:13.154Z,57.95
2023-03-29T02:01:24.244Z,57.91
2023-03-29T02:03:42.723Z,57.98
2023-03-29T02:05:47.731Z,58.13
2023-03-29T02:07:54.768Z,58.24
2023-03-29T02:09:59.516Z,58.32
2023-03-29T02:12:06.784Z,58.72
2023-03-29T02:14:12.614Z,58.90
2023-03-29T02:16:16.720Z,59.05
2023-03-29T02:18:20.169Z,58.92
2023-03-29T02:20:33.694Z,59.11
2023-03-29T02:22:45.801Z,59.36
2023-03-29T02:24:59.060Z,59.73
2023-03-29T02:27:03.909Z,59.64
2023-03-29T02:29:08.980Z,59.87
2023-03-29T02:31:29.498Z,59.92
2023-03-29T02:33:45.713Z,60.01
2023-03-29T02:36:13.464Z,60.00
2023-03-29T02:38:17.791Z,60.04
2023-03-29T02:40:26.138Z,59.95
2023-03-29T02:42:33.318Z,60.01
2023-03-29T02:44:41.710Z,60.12
2023-03-29T02:46:51.061Z,59.88
2023-03-29T02:48:57.640Z,60.02
2023-03-29T02:51:03.316Z,60.03
2023-03-29T02:53:13.064Z,60.03
2023-03-29T02:55:23.192Z,60.17
2023-03-29T02:57:30.944Z,60.14
2023-03-29T02:59:35.455Z,60.10
2023-03-29T03:01:43.082Z,60.16
2023-03-29T03:03:47.863Z,60.37
2023-03-29T03:05:52.459Z,60.45
2023-03-29T03:07:59.020Z,60.53
2023-03-29T03:10:03.864Z,60.31
2023-03-29T03:12:09.551Z,60.34
2023-03-29T03:14:13.665Z,60.41
2023-03-29T03:16:20.332Z,60.87
2023-03-29T03:18:24.352Z,61.13
2023-03-29T03:20:31.344Z,60.86
2023-03-29T03:22:35.684Z,60.89
2023-03-29T03:24:40.504Z,61.06
2023-03-29T03:26:46.382Z,61.16
2023-03-29T03:28:51.134Z,61.41
2023-03-29T03:31:17.595Z,61.58
2023-03-29T03:33:42.484Z,61.91
2023-03-29T03:35:46.723Z,61.88
2023-03-29T03:37:51.722Z,61.81
2023-03-29T03:40:00.817Z,61.82
2023-03-29T03:42:08.580Z,61.62
2023-03-29T03:44:16.574Z,61.65
2023-03-29T03:46:20.458Z,61.86
2023-03-29T03:48:25.507Z,62.28
2023-03-29T03:50:55.297Z,62.49
2023-03-29T03:52:58.909Z,62.41
2023-03-29T03:55:07.518Z,62.33
2023-03-29T03:57:33.377Z,62.33
2023-03-29T03:59:37.156Z,62.01
2023-03-29T04:01:44.953Z,61.85
2023-03-29T04:03:52.079Z,61.88
2023-03-29T04:05:56.603Z,61.98
2023-03-29T04:08:00.774Z,61.99
2023-03-29T04:10:22.720Z,62.33
2023-03-29T04:12:47.667Z,62.13
2023-03-29T04:14:50.843Z,62.10
2023-03-29T04:16:59.067Z,62.20
2023-03-29T04:19:20.224Z,62.35
2023-03-29T04:21:24.098Z,62.46
2023-03-29T04:23:26.782Z,62.64
2023-03-29T04:25:30.945Z,62.97
2023-03-29T04:28:13.520Z,63.11
2023-03-29T04:30:27.818Z,63.35
2023-03-29T04:32:54.517Z,63.50
2023-03-29T04:35:02.660Z,63.42
2023-03-29T04:37:10.885Z,63.31
2023-03-29T04:39:14.867Z,63.15
2023-03-29T04:41:28.925Z,63.22
2023-03-29T04:43:56.184Z,63.42
2023-03-29T04:46:04.460Z,63.42
2023-03-29T04:48:37.454Z,63.45
2023-03-29T04:50:47.524Z,63.56
2023-03-29T04:52:53.075Z,63.26
2023-03-29T04:54:56.565Z,63.41
2023-03-29T04:57:09.728Z,63.17
2023-03-29T04:59:15.474Z,63.23
2023-03-29T05:01:18.208Z,63.52
2023-03-29T05:03:31.300Z,63.48
2023-03-29T05:05:44.021Z,63.60
2023-03-29T05:07:47.064Z,63.61
2023-03-29T05:09:51.532Z,63.85
2023-03-29T05:11:56.765Z,63.66
2023-03-29T05:14:03.521Z,63.77
2023-03-29T05:16:11.266Z,63.83
2023-03-29T05:18:15.323Z,63.88
2023-03-29T05:20:19.880Z,64.27
2023-03-29T05:22:23.545Z,64.20
2023-03-29T05:24:30.001Z,64.20
2023-03-29T05:26:41.527Z,64.30
2023-03-29T05:28:45.024Z,64.21
2023-03-29T05:30:48.804Z,64.00
2023-03-29T05:33:07.779Z,64.08
2023-03-29T05:35:13.475Z,64.01
2023-03-29T05:37:16.464Z,64.00
2023-03-29T05:39:37.142Z,64.24
2023-03-29T05:41:43.351Z,64.07
2023-03-29T05:44:12.953Z,64.09
2023-03-29T05:46:19.784Z,64.20
2023-03-29T05:48:28.590Z,64.23
2023-03-29T05:50:31.997Z,64.19
2023-03-29T05:52:37.735Z,64.27
2023-03-29T05:54:43.312Z,64.29
2023-03-29T05:56:48.441Z,64.33
2023-03-29T05:58:54.942Z,64.23
2023-03-29T06:01:01.122Z,64.31
2023-03-29T06:03:36.926Z,64.26
2023-03-29T06:05:42.754Z,64.35
2023-03-29T06:07:47.076Z,64.55
2023-03-29T06:10:09.727Z,64.40
2023-03-29T06:12:14.042Z,64.93
2023-03-29T06:14:30.286Z,64.98
2023-03-29T06:17:03.767Z,64.84
2023-03-29T06:19:07.806Z,64.94
2023-03-29T06:21:11.376Z,64.89
2023-03-29T06:23:16.274Z,65.08
2023-03-29T06:25:23.916Z,64.84
2023-03-29T06:27:33.072Z,64.75
2023-03-29T06:29:35.913Z,64.61
2023-03-29T06:31:42.209Z,64.47
2023-03-29T06:33:47.815Z,64.29
2023-03-29T06:36:08.663Z,64.41
2023-03-29T06:38:13.839Z,64.24
2023-03-29T06:40:45.519Z,64.22
2023-03-29T06:42:58.278Z,64.21
2023-03-29T06:45:34.703Z,64.09
2023-03-29T06:47:40.748Z,64.23
2023-03-29T06:49:46.209Z,64.24
2023-03-29T06:52:24.776Z,64.21
2023-03-29T06:54:27.450Z,64.29
2023-03-29T06:56:38.205Z,64.03
2023-03-29T06:58:45.161Z,63.90
2023-03-29T07:01:08.271Z,63.97
2023-03-29T07:03:36.497Z,63.66
2023-03-29T07:05:42.443Z,63.74
2023-03-29T07:07:57.238Z,63.95
2023-03-29T07:10:07.371Z,64.09
2023-03-29T07:12:32.617Z,63.99
2023-03-29T07:14:37.729Z,63.97
2023-03-29T07:16:43.407Z,63.92
2023-03-29T07:18:58.809Z,63.82
2023-03-29T07:21:25.501Z,64.03
2023-03-29T07:23:29.125Z,63.79
2023-03-29T07:25:34.983Z,63.70
2023-03-29T07:27:41.044Z,63.69
2023-03-29T07:29:46.758Z,63.53
2023-03-29T07:31:52.802Z,63.34
2023-03-29T07:34:25.518Z,63.11
2023-03-29T07:36:28.593Z,62.93
2023-03-29T07:38:32.486Z,63.04
2023-03-29T07:40:41.263Z,63.06
2023-03-29T07:43:08.113Z,62.94
2023-03-29T07:45:13.832Z,62.90
2023-03-29T07:47:28.371Z,62.60
2023-03-29T07:49:31.445Z,62.42
2023-03-29T07:51:38.062Z,62.28
2023-03-29T07:53:47.369Z,62.12
2023-03-29T07:56:12.007Z,61.96
2023-03-29T07:58:24.027Z,62.05
2023-03-29T08:00:28.503Z,61.91
2023-03-29T08:02:52.647Z,61.91
2023-03-29T08:04:57.064Z,61.91
2023-03-29T08:07:21.870Z,61.75
2023-03-29T08:09:43.480Z,61.81
2023-03-29T08:11:47.682Z,61.51
2023-03-29T08:13:56.279Z,61.52
2023-03-29T08:16:17.714Z,61.43
2023-03-29T08:18:27.754Z,61.23
2023-03-29T08:20:33.302Z,61.04
2023-03-29T08:22:40.532Z,60.92
2023-03-29T08:24:45.064Z,61.00
2023-03-29T08:26:49.824Z,60.95
2023-03-29T08:28:59.792Z,60.80
2023-03-29T08:31:05.394Z,60.78
2023-03-29T08:33:16.098Z,60.62
2023-03-29T08:35:19.970Z,60.43
2023-03-29T08:37:34.362Z,60.54
2023-03-29T08:39:40.895Z,60.60
2023-03-29T08:42:17.065Z,60.48
2023-03-29T08:44:37.859Z,60.63
2023-03-29T08:47:15.390Z,60.72
2023-03-29T08:49:22.647Z,60.45
2023-03-29T08:51:33.807Z,60.54
2023-03-29T08:53:45.062Z,60.29
2023-03-29T08:55:56.666Z,60.09
2023-03-29T08:58:35.693Z,59.72
2023-03-29T09:00:44.577Z,59.64
2023-03-29T09:02:52.139Z,59.70
2023-03-29T09:05:04.685Z,59.57
2023-03-29T09:07:23.529Z,59.41
2023-03-29T09:09:34.737Z,59.17
2023-03-29T09:11:46.661Z,59.10
2023-03-29T09:13:59.337Z,59.13
2023-03-29T09:16:34.291Z,59.01
2023-03-29T09:19:02.578Z,59.36
2023-03-29T09:21:31.100Z,59.26
2023-03-29T09:23:48.776Z,59.23
2023-03-29T09:26:34.825Z,59.11
2023-03-29T09:28:57.775Z,59.06
2023-03-29T09:31:12.299Z,58.83
2023-03-29T09:33:37.176Z,59.05
2023-03-29T09:35:57.075Z,58.81
2023-03-29T09:38:07.286Z,58.71
2023-03-29T09:40:17.286Z,58.54
2023-03-29T09:42:30.061Z,58.30
2023-03-29T09:44:41.526Z,58.40
2023-03-29T09:46:56.105Z,58.41
2023-03-29T09:49:02.031Z,58.35
2023-03-29T09:51:07.579Z,58.27
2023-03-29T09:53:15.758Z,57.91
2023-03-29T09:55:27.411Z,57.73
2023-03-29T09:57:35.454Z,57.65
2023-03-29T09:59:40.912Z,57.76
2023-03-29T10:01:49.847Z,57.73
2023-03-29T10:03:57.161Z,57.75
2023-03-29T10:06:03.499Z,57.93
2023-03-29T10:08:29.974Z,57.91
2023-03-29T10:10:36.790Z,57.68
2023-03-29T10:12:44.828Z,57.59
2023-03-29T10:14:54.890Z,57.59
2023-03-29T10:16:58.843Z,57.16
2023-03-29T10:19:33.843Z,56.80
2023-03-29T10:21:38.206Z,57.08
2023-03-29T10:23:48.959Z,57.21
2023-03-29T10:25:53.154Z,56.99
2023-03-29T10:28:19.073Z,56.84
2023-03-29T10:30:25.488Z,56.65
2023-03-29T10:32:35.383Z,56.83
2023-03-29T10:34:40.842Z,56.87
2023-03-29T10:36:59.227Z,56.78
2023-03-29T10:39:05.890Z,56.73
2023-03-29T10:41:14.568Z,56.62
2023-03-29T10:43:26.160Z,56.85
2023-03-29T10:45:35.287Z,56.67
2023-03-29T10:47:38.572Z,56.47
2023-03-29T10:49:50.880Z,56.50
2023-03-29T10:51:55.373Z,56.35
2023-03-29T10:53:59.429Z,56.31
2023-03-29T10:56:08.209Z,56.09
2023-03-29T10:58:21.186Z,55.69
2023-03-29T11:00:33.443Z,55.86
2023-03-29T11:02:48.673Z,55.65
2023-03-29T11:05:09.065Z,55.62
2023-03-29T11:07:41.114Z,55.38
2023-03-29T11:10:15.449Z,55.23
2023-03-29T11:12:35.340Z,55.16
2023-03-29T11:14:53.144Z,55.26
2023-03-29T11:17:03.230Z,55.15
2023-03-29T11:19:13.468Z,54.82
2023-03-29T11:21:17.902Z,54.36
2023-03-29T11:24:05.373Z,54.09
2023-03-29T11:26:20.746Z,53.79
2023-03-29T11:28:37.473Z,53.74
2023-03-29T11:30:46.028Z,53.67
2023-03-29T11:33:07.550Z,53.22
2023-03-29T11:35:29.849Z,53.10
2023-03-29T11:37:51.983Z,52.97
2023-03-29T11:40:05.873Z,52.91
2023-03-29T11:42:17.820Z,52.88
2023-03-29T11:44:23.896Z,52.59
2023-03-29T11:46:58.667Z,52.34
2023-03-29T11:49:32.946Z,52.49
2023-03-29T11:51:41.397Z,52.64
2023-03-29T11:53:53.297Z,52.36
2023-03-29T11:55:57.419Z,52.42
2023-03-29T11:58:07.805Z,52.29
2023-03-29T12:00:24.124Z,52.05
2023-03-29T12:02:39.815Z,52.01
2023-03-29T12:04:48.520Z,51.90
2023-03-29T12:07:12.642Z,51.85
2023-03-29T12:09:44.846Z,51.81
2023-03-29T12:12:01.804Z,52.09
2023-03-29T12:14:21.325Z,51.88
2023-03-29T12:16:25.008Z,51.89
2023-03-29T12:18:34.057Z,51.96
2023-03-29T12:20:39.924Z,52.28
2023-03-29T12:22:49.060Z,52.52
2023-03-29T12:24:54.005Z,52.35
2023-03-29T12:27:01.318Z,52.19
2023-03-29T12:29:43.870Z,52.16
2023-03-29T12:31:52.461Z,52.15
2023-03-29T12:34:24.545Z,52.22
2023-03-29T12:36:51.902Z,52.53
2023-03-29T12:39:21.581Z,52.43
2023-03-29T12:41:45.626Z,52.26
2023-03-29T12:44:27.215Z,51.52
2023-03-29T12:46:40.175Z,51.77
2023-03-29T12:48:46.061Z,52.09
2023-03-29T12:50:52.365Z,52.27
2023-03-29T12:53:15.603Z,52.14
2023-03-29T12:55:33.441Z,51.97
2023-03-29T12:57:45.360Z,52.07
2023-03-29T12:59:52.083Z,52.01
2023-03-29T13:02:05.483Z,51.95
2023-03-29T13:04:19.558Z,52.02
2023-03-29T13:06:34.549Z,52.11
2023-03-29T13:08:48.479Z,52.11
2023-03-29T13:10:58.482Z,51.89
2023-03-29T13:13:14.626Z,52.29
2023-03-29T13:15:18.228Z,52.49
2023-03-29T13:17:40.234Z,52.47
2023-03-29T13:20:01.612Z,52.36
2023-03-29T13:22:25.451Z,52.28
2023-03-29T13:25:11.340Z,52.31
2023-03-29T13:27:42.298Z,52.30
2023-03-29T13:30:21.165Z,52.14
2023-03-29T13:32:50.727Z,52.48
2023-03-29T13:35:11.761Z,52.40
2023-03-29T13:37:33.632Z,52.56
2023-03-29T13:39:48.157Z,52.42
2023-03-29T13:41:54.338Z,52.24
2023-03-29T13:43:57.879Z,52.16
2023-03-29T13:46:00.605Z,52.51
2023-03-29T13:48:24.961Z,52.54
2023-03-29T13:50:53.867Z,52.50
2023-03-29T13:53:06.233Z,52.64
2023-03-29T13:55:17.983Z,52.48
2023-03-29T13:57:25.455Z,52.47
2023-03-29T13:59:43.639Z,52.42
2023-03-29T14:01:53.378Z,52.59
2023-03-29T14:04:01.641Z,52.79
2023-03-29T14:06:08.360Z,52.59
2023-03-29T14:08:21.609Z,52.60
2023-03-29T14:10:33.475Z,52.50
2023-03-29T14:12:41.830Z,52.32
2023-03-29T14:14:56.032Z,52.64
2023-03-29T14:17:02.282Z,52.62
2023-03-29T14:19:14.154Z,52.88
2023-03-29T14:21:18.713Z,52.68
2023-03-29T14:23:27.814Z,52.80
2023-03-29T14:25:32.265Z,52.77
2023-03-29T14:27:45.070Z,52.64
2023-03-29T14:29:53.826Z,52.65
2023-03-29T14:32:09.315Z,52.58
2023-03-29T14:34:16.832Z,52.37
2023-03-29T14:36:21.972Z,52.73
2023-03-29T14:38:27.036Z,52.62
2023-03-29T14:40:33.377Z,52.45
2023-03-29T14:42:39.810Z,52.60
2023-03-29T14:44:44.321Z,52.49
2023-03-29T14:46:50.443Z,52.41
2023-03-29T14:48:56.728Z,52.39
2023-03-29T14:51:00.648Z,52.39
2023-03-29T14:53:04.054Z,52.49
2023-03-29T14:55:07.489Z,52.75
2023-03-29T14:57:20.730Z,52.64
2023-03-29T14:59:28.723Z,52.25
2023-03-29T15:01:31.922Z,51.98
2023-03-29T15:03:54.100Z,52.14
2023-03-29T15:06:03.752Z,51.89
2023-03-29T15:08:14.232Z,51.98
2023-03-29T15:10:19.300Z,51.74
2023-03-29T15:12:23.759Z,51.85
2023-03-29T15:14:31.478Z,51.82
2023-03-29T15:16:38.691Z,51.80
2023-03-29T15:18:44.170Z,51.97
2023-03-29T15:20:48.488Z,52.10
2023-03-29T15:23:18.519Z,52.17
2023-03-29T15:25:24.686Z,52.14
2023-03-29T15:27:39.603Z,51.99
2023-03-29T15:29:46.768Z,52.15
2023-03-29T15:31:58.966Z,52.10
2023-03-29T15:34:08.500Z,52.01
2023-03-29T15:36:17.140Z,52.22
2023-03-29T15:38:27.655Z,52.28
2023-03-29T15:40:37.654Z,52.22
2023-03-29T15:42:43.009Z,52.33
2023-03-29T15:44:48.519Z,52.38
2023-03-29T15:46:55.377Z,52.56
2023-03-29T15:48:59.391Z,52.19
2023-03-29T15:51:05.485Z,51.82
2023-03-29T15:53:15.577Z,51.57
2023-03-29T15:55:22.544Z,51.29
2023-03-29T15:57:28.391Z,51.40
2023-03-29T15:59:33.325Z,51.30
2023-03-29T16:01:38.914Z,51.34
2023-03-29T16:03:41.665Z,51.26
2023-03-29T16:05:45.624Z,51.36
2023-03-29T16:07:48.299Z,51.32
2023-03-29T16:09:51.026Z,51.34
2023-03-29T16:11:56.094Z,51.44
2023-03-29T16:13:59.574Z,51.62
2023-03-29T16:16:10.269Z,51.70
2023-03-29T16:18:15.180Z,51.94
2023-03-29T16:20:20.027Z,52.21
2023-03-29T16:22:24.432Z,52.27
2023-03-29T16:24:32.873Z,52.39
2023-03-29T16:26:36.440Z,52.47
2023-03-29T16:28:39.189Z,52.69
2023-03-29T16:30:42.842Z,52.78
2023-03-29T16:32:47.895Z,53.01
2023-03-29T16:34:53.591Z,53.22
2023-03-29T16:36:56.774Z,53.31
2023-03-29T16:39:00.104Z,53.48
2023-03-29T16:41:07.569Z,53.73
2023-03-29T16:43:16.005Z,53.85
2023-03-29T16:45:21.327Z,54.09
2023-03-29T16:47:26.073Z,54.13
2023-03-29T16:49:29.098Z,54.24
2023-03-29T16:51:32.316Z,54.37
2023-03-29T16:53:35.626Z,54.36
2023-03-29T16:55:38.218Z,54.57
2023-03-29T16:57:42.178Z,54.65
2023-03-29T16:59:47.539Z,54.55
2023-03-29T17:01:51.109Z,54.59
2023-03-29T17:03:54.646Z,54.70
2023-03-29T17:05:57.976Z,54.79
2023-03-29T17:08:00.549Z,54.85
2023-03-29T17:10:09.162Z,55.16
2023-03-29T17:12:12.168Z,55.17
2023-03-29T17:14:15.430Z,55.17
2023-03-29T17:16:19.826Z,55.05
2023-03-29T17:18:26.759Z,55.24
2023-03-29T17:20:31.635Z,55.29
2023-03-29T17:22:41.014Z,55.46
2023-03-29T17:24:43.622Z,55.29
2023-03-29T17:26:56.001Z,55.41
2023-03-29T17:29:01.089Z,55.33
2023-03-29T17:31:08.747Z,55.50
2023-03-29T17:33:13.448Z,55.65
2023-03-29T17:35:15.989Z,55.68
2023-03-29T17:37:21.224Z,55.88
2023-03-29T17:39:27.580Z,56.05
2023-03-29T17:41:32.997Z,56.01
2023-03-29T17:43:35.705Z,56.09
2023-03-29T17:45:39.312Z,56.18
2023-03-29T17:47:42.819Z,56.15
2023-03-29T17:49:45.305Z,56.42
2023-03-29T17:51:49.774Z,56.23
2023-03-29T17:53:54.783Z,56.31
2023-03-29T17:55:57.365Z,56.45
2023-03-29T17:58:00.013Z,56.28
2023-03-29T18:00:02.558Z,56.60
2023-03-29T18:02:07.501Z,56.69
2023-03-29T18:04:11.718Z,56.78
2023-03-29T18:06:19.112Z,56.68
2023-03-29T18:08:21.567Z,56.78
2023-03-29T18:10:24.629Z,56.52
2023-03-29T18:12:33.223Z,56.70
2023-03-29T18:14:37.006Z,56.87
2023-03-29T18:16:42.837Z,56.68
2023-03-29T18:18:46.514Z,56.80
2023-03-29T18:20:49.454Z,56.95
2023-03-29T18:22:51.931Z,57.04
2023-03-29T18:24:55.435Z,57.12
2023-03-29T18:27:01.258Z,57.19
2023-03-29T18:29:06.076Z,57.12
2023-03-29T18:31:12.114Z,57.03
2023-03-29T18:33:17.252Z,57.06
2023-03-29T18:35:25.302Z,57.22
2023-03-29T18:37:28.293Z,57.13
2023-03-29T18:39:32.106Z,56.94
2023-03-29T18:41:37.184Z,57.24
2023-03-29T18:43:40.893Z,57.36
2023-03-29T18:45:45.705Z,57.35
2023-03-29T18:47:50.649Z,57.51
2023-03-29T18:49:56.358Z,57.70
2023-03-29T18:51:59.201Z,57.89
2023-03-29T18:54:01.881Z,58.12
2023-03-29T18:56:07.123Z,58.18
2023-03-29T18:58:14.725Z,58.35
2023-03-29T19:00:18.095Z,58.45
2023-03-29T19:02:22.973Z,58.58
2023-03-29T19:04:27.529Z,58.63
2023-03-29T19:06:31.630Z,58.65
2023-03-29T19:08:41.621Z,58.69
2023-03-29T19:10:45.511Z,58.81
2023-03-29T19:12:57.056Z,58.85
2023-03-29T19:15:01.887Z,59.08
2023-03-29T19:17:06.642Z,59.22
2023-03-29T19:19:10.845Z,59.30
2023-03-29T19:21:16.856Z,59.38
2023-03-29T19:23:28.876Z,59.48
2023-03-29T19:25:31.776Z,59.60
2023-03-29T19:27:35.804Z,59.64
2023-03-29T19:29:38.946Z,59.64
2023-03-29T19:31:42.074Z,59.82
2023-03-29T19:33:51.323Z,59.84
2023-03-29T19:35:56.679Z,59.91
2023-03-29T19:38:01.362Z,59.98
2023-03-29T19:40:06.765Z,59.93
2023-03-29T19:42:09.864Z,59.77
2023-03-29T19:44:13.744Z,59.95
2023-03-29T19:46:17.744Z,59.95
2023-03-29T19:48:23.959Z,60.08
2023-03-29T19:50:29.818Z,59.92
2023-03-29T19:52:33.948Z,60.10
2023-03-29T19:54:42.523Z,60.20
2023-03-29T19:56:46.306Z,60.19
2023-03-29T19:59:01.123Z,60.47
2023-03-29T20:01:08.355Z,60.39
2023-03-29T20:03:13.245Z,60.52
2023-03-29T20:05:21.321Z,60.60
2023-03-29T20:07:27.620Z,60.55
2023-03-29T20:09:31.315Z,60.62
2023-03-29T20:11:34.931Z,60.75
2023-03-29T20:13:43.264Z,60.84
2023-03-29T20:15:47.147Z,60.96
2023-03-29T20:17:54.853Z,61.10
2023-03-29T20:19:59.146Z,61.25
2023-03-29T20:22:03.775Z,61.56
2023-03-29T20:24:08.620Z,61.69
2023-03-29T20:26:14.188Z,61.88
2023-03-29T20:28:20.648Z,61.95
2023-03-29T20:30:25.237Z,62.01
2023-03-29T20:32:30.410Z,62.13
2023-03-29T20:34:34.163Z,62.13
2023-03-29T20:36:38.973Z,62.06
2023-03-29T20:38:43.485Z,61.80
2023-03-29T20:40:46.071Z,61.54
2023-03-29T20:42:49.367Z,61.35
2023-03-29T20:44:53.740Z,61.22
2023-03-29T20:47:05.387Z,61.12
2023-03-29T20:49:08.999Z,61.18
2023-03-29T20:51:16.030Z,61.37
2023-03-29T20:53:20.739Z,61.33
2023-03-29T20:55:25.169Z,61.44
2023-03-29T20:57:30.397Z,61.29
2023-03-29T20:59:34.811Z,61.69
2023-03-29T21:01:40.551Z,61.98
2023-03-29T21:03:46.400Z,62.25
2023-03-29T21:05:57.274Z,62.30
2023-03-29T21:08:02.450Z,62.71
2023-03-29T21:10:07.047Z,62.41
2023-03-29T21:12:10.056Z,62.41
2023-03-29T21:14:23.631Z,62.33
2023-03-29T21:16:31.312Z,62.48
2023-03-29T21:18:37.086Z,62.53
2023-03-29T21:20:41.930Z,62.33
2023-03-29T21:22:44.512Z,62.28
2023-03-29T21:24:50.553Z,62.26
2023-03-29T21:26:54.330Z,62.05
2023-03-29T21:28:57.939Z,62.02
2023-03-29T21:31:05.539Z,62.00
2023-03-29T21:33:09.566Z,62.11
2023-03-29T21:35:13.291Z,61.87
2023-03-29T21:37:19.640Z,62.08
2023-03-29T21:39:26.107Z,61.90
2023-03-29T21:41:29.894Z,62.05
2023-03-29T21:43:32.696Z,62.12
2023-03-29T21:45:36.407Z,62.05
2023-03-29T21:47:39.751Z,62.06
2023-03-29T21:49:43.170Z,61.98
2023-03-29T21:51:46.458Z,62.09
2023-03-29T21:53:48.974Z,61.91
2023-03-29T21:55:52.781Z,61.76
2023-03-29T21:57:55.632Z,61.88
2023-03-29T21:59:59.143Z,61.76
2023-03-29T22:02:02.903Z,61.58
2023-03-29T22:04:06.920Z,61.64
2023-03-29T22:06:13.683Z,61.44
2023-03-29T22:08:19.266Z,61.51
2023-03-29T22:10:25.851Z,61.40
2023-03-29T22:12:37.971Z,61.58
2023-03-29T22:14:41.352Z,62.07
2023-03-29T22:16:49.999Z,62.44
2023-03-29T22:18:54.335Z,62.69
2023-03-29T22:21:01.519Z,63.05
2023-03-29T22:23:07.349Z,63.09
2023-03-29T22:25:11.818Z,63.31
2023-03-29T22:27:14.359Z,63.31
2023-03-29T22:29:17.189Z,63.31
2023-03-29T22:31:25.984Z,63.25
2023-03-29T22:33:31.058Z,63.38
2023-03-29T22:35:35.977Z,63.39
2023-03-29T22:37:43.516Z,63.41
2023-03-29T22:39:49.520Z,63.32
2023-03-29T22:41:52.016Z,63.55
2023-03-29T22:43:57.732Z,63.49
2023-03-29T22:46:01.100Z,63.75
2023-03-29T22:48:05.859Z,63.84
2023-03-29T22:50:12.280Z,63.83
2023-03-29T22:52:15.586Z,64.04
2023-03-29T22:54:18.512Z,63.90
2023-03-29T22:56:22.144Z,64.27
2023-03-29T22:58:25.323Z,64.21
2023-03-29T23:00:35.531Z,64.31
2023-03-29T23:02:38.165Z,64.32
2023-03-29T23:04:42.443Z,64.32
2023-03-29T23:06:56.414Z,64.28
2023-03-29T23:08:58.965Z,64.34
2023-03-29T23:11:07.138Z,64.28
2023-03-29T23:13:10.382Z,64.37
2023-03-29T23:15:14.557Z,64.10
2023-03-29T23:17:19.907Z,64.05
2023-03-29T23:19:27.483Z,64.18
2023-03-29T23:21:29.955Z,64.26
2023-03-29T23:23:33.882Z,64.25
2023-03-29T23:25:38.328Z,64.55
2023-03-29T23:27:41.304Z,64.58
2023-03-29T23:29:47.645Z,64.57
2023-03-29T23:31:50.208Z,64.61
2023-03-29T23:33:53.185Z,64.67
2023-03-29T23:35:57.910Z,64.63
2023-03-29T23:38:00.823Z,64.67
2023-03-29T23:40:14.140Z,64.64
2023-03-29T23:42:18.340Z,64.73
2023-03-29T23:44:20.891Z,64.73
2023-03-29T23:46:23.642Z,64.96
2023-03-29T23:48:27.317Z,65.03
2023-03-29T23:50:33.143Z,65.14
2023-03-29T23:52:37.851Z,65.42
2023-03-29T23:54:40.389Z,65.34
2023-03-29T23:56:44.089Z,65.32
2023-03-29T23:58:47.289Z,65.41
